Time;durP1;ratioP1;P1;durP2;ratioP2;P2;SDS_P1;SDS_P2;PMS_P1;PMS_P2;Temp;Humidity;BMP_temperature;BMP_pressure;BME280_temperature;BME280_humidity;BME280_pressure;Samples;Min_cycle;Max_cycle;Signal;HPM_P1;HPM_P2
2022/01/13 00:01:22;;;;;;;;;;;20.30;44.50;;;;;;5090233;28;19912;-63
2022/01/13 00:03:48;;;;;;;;;;;20.20;44.30;;;;;;5091248;28;19919;-63
2022/01/13 00:06:13;;;;;;;;;;;20.20;44.30;;;;;;5092546;28;19915;-63
2022/01/13 00:08:39;;;;;;;;;;;20.20;44.60;;;;;;5124763;27;19915;-63
2022/01/13 00:11:04;;;;;;;;;;;20.20;44.50;;;;;;5093046;28;19916;-63
2022/01/13 00:13:44;;;;;;;;;;;20.10;44.40;;;;;;5085743;28;19912;-63
2022/01/13 00:16:40;;;;;;;;;;;20.10;44.50;;;;;;5099804;28;19912;-63
2022/01/13 00:21:48;;;;;;;;;;;20.10;44.50;;;;;;5099753;28;19997;-63
2022/01/13 00:24:13;;;;;;;;;;;20.10;44.50;;;;;;5090048;28;20307;-63
2022/01/13 00:26:40;;;;;;;;;;;20.10;44.50;;;;;;5091292;28;19916;-63
2022/01/13 00:29:06;;;;;;;;;;;20.00;44.40;;;;;;5092381;28;19951;-63
2022/01/13 00:31:33;;;;;;;;;;;20.00;44.40;;;;;;5092447;28;19966;-63
2022/01/13 00:34:00;;;;;;;;;;;20.00;44.40;;;;;;5107972;28;19938;-63
2022/01/13 00:36:26;;;;;;;;;;;20.00;44.40;;;;;;5091340;28;19923;-63
2022/01/13 00:38:51;;;;;;;;;;;20.00;44.40;;;;;;5091697;28;19912;-63
2022/01/13 00:41:17;;;;;;;;;;;20.00;44.40;;;;;;5092601;28;20280;-63
2022/01/13 00:43:46;;;;;;;;;;;19.90;44.30;;;;;;5092012;28;19923;-63
2022/01/13 00:46:18;;;;;;;;;;;19.90;44.40;;;;;;5084180;28;20355;-63
2022/01/13 00:48:44;;;;;;;;;;;19.90;44.40;;;;;;5095826;28;19912;-63
2022/01/13 00:51:09;;;;;;;;;;;19.90;44.40;;;;;;5096412;28;19977;-63
2022/01/13 00:53:35;;;;;;;;;;;19.90;44.40;;;;;;5091503;28;19963;-63
2022/01/13 00:56:00;;;;;;;;;;;19.90;44.40;;;;;;5091960;28;20415;-63
2022/01/13 00:58:27;;;;;;;;;;;19.80;44.40;;;;;;5091757;28;20345;-63
2022/01/13 01:00:52;;;;;;;;;;;19.80;44.50;;;;;;5091364;28;19995;-63
2022/01/13 01:03:18;;;;;;;;;;;19.80;44.60;;;;;;5095194;28;20052;-63
2022/01/13 01:05:43;;;;;;;;;;;19.70;44.60;;;;;;5091242;28;19913;-63
2022/01/13 01:08:09;;;;;;;;;;;19.80;44.50;;;;;;5091265;28;20269;-63
2022/01/13 01:10:35;;;;;;;;;;;19.70;44.70;;;;;;5073500;28;19922;-63
2022/01/13 01:13:10;;;;;;;;;;;19.70;44.70;;;;;;5090306;28;19916;-63
2022/01/13 01:15:35;;;;;;;;;;;19.70;44.70;;;;;;5098786;28;19931;-63
2022/01/13 01:18:08;;;;;;;;;;;19.60;44.60;;;;;;5091010;28;19927;-63
2022/01/13 01:20:46;;;;;;;;;;;19.60;44.60;;;;;;5098973;28;19908;-63
2022/01/13 01:23:16;;;;;;;;;;;19.60;44.70;;;;;;5090994;28;19920;-63
2022/01/13 01:25:57;;;;;;;;;;;19.60;44.80;;;;;;5075871;28;20284;-63
2022/01/13 01:28:29;;;;;;;;;;;19.60;44.80;;;;;;5117312;27;19912;-63
2022/01/13 01:30:55;;;;;;;;;;;19.60;44.90;;;;;;5091947;28;19995;-64
2022/01/13 01:33:21;;;;;;;;;;;19.50;44.80;;;;;;5087927;28;19927;-63
2022/01/13 01:35:48;;;;;;;;;;;19.50;44.80;;;;;;5090834;28;19908;-63
2022/01/13 01:38:13;;;;;;;;;;;19.50;44.80;;;;;;5085325;28;19968;-64
2022/01/13 01:40:39;;;;;;;;;;;19.50;44.80;;;;;;5091635;28;19916;-63
2022/01/13 01:43:05;;;;;;;;;;;19.40;44.90;;;;;;5091465;28;20335;-63
2022/01/13 01:45:33;;;;;;;;;;;19.40;44.90;;;;;;5089613;28;20296;-63
2022/01/13 01:48:02;;;;;;;;;;;19.40;44.90;;;;;;5091151;28;20356;-63
2022/01/13 01:50:35;;;;;;;;;;;19.40;44.90;;;;;;5091059;28;19987;-63
2022/01/13 01:53:00;;;;;;;;;;;19.40;44.90;;;;;;5090569;28;19919;-63
2022/01/13 01:55:25;;;;;;;;;;;19.40;45.00;;;;;;5091158;28;19908;-63
2022/01/13 01:57:51;;;;;;;;;;;19.40;45.00;;;;;;5124065;27;19957;-63
2022/01/13 02:00:18;;;;;;;;;;;19.40;45.00;;;;;;5090032;28;19912;-63
2022/01/13 02:02:44;;;;;;;;;;;19.40;45.00;;;;;;5091286;28;20425;-63
2022/01/13 02:05:09;;;;;;;;;;;19.30;45.10;;;;;;5091729;28;19924;-63
2022/01/13 02:07:35;;;;;;;;;;;19.30;45.10;;;;;;5110793;27;19912;-63
2022/01/13 02:10:00;;;;;;;;;;;19.30;45.10;;;;;;5093449;28;20225;-63
2022/01/13 02:12:33;;;;;;;;;;;19.30;45.20;;;;;;5087338;28;20373;-63
2022/01/13 02:15:17;;;;;;;;;;;19.30;45.20;;;;;;5097546;28;20002;-63
2022/01/13 02:17:42;;;;;;;;;;;19.30;44.90;;;;;;5115400;27;19920;-63
2022/01/13 02:20:08;;;;;;;;;;;19.40;44.80;;;;;;5090119;28;20302;-63
2022/01/13 02:22:34;;;;;;;;;;;19.40;44.70;;;;;;5094689;28;20242;-63
2022/01/13 02:24:59;;;;;;;;;;;19.40;44.70;;;;;;5099832;28;20372;-64
2022/01/13 02:27:25;;;;;;;;;;;19.40;44.70;;;;;;5094118;28;19912;-63
2022/01/13 02:29:50;;;;;;;;;;;19.40;44.80;;;;;;5095142;28;19955;-63
2022/01/13 02:32:16;;;;;;;;;;;19.40;45.20;;;;;;5094694;28;19975;-64
2022/01/13 02:34:41;;;;;;;;;;;19.40;45.30;;;;;;5128172;27;19935;-63
2022/01/13 02:37:07;;;;;;;;;;;19.50;45.30;;;;;;5130804;27;20261;-64
2022/01/13 02:39:32;;;;;;;;;;;19.60;45.10;;;;;;5090382;28;19957;-63
2022/01/13 02:41:58;;;;;;;;;;;19.70;44.90;;;;;;5095092;28;19916;-63
2022/01/13 02:44:24;;;;;;;;;;;19.90;44.60;;;;;;5094334;28;19923;-63
2022/01/13 02:49:16;;;;;;;;;;;20.20;44.30;;;;;;5126966;27;19994;-64
2022/01/13 02:51:43;;;;;;;;;;;20.30;44.00;;;;;;5092792;28;19959;-63
2022/01/13 02:54:09;;;;;;;;;;;20.40;43.80;;;;;;5126738;27;19912;-64
2022/01/13 02:56:34;;;;;;;;;;;20.50;43.70;;;;;;5127487;27;20281;-63
2022/01/13 02:59:00;;;;;;;;;;;20.50;43.40;;;;;;5092998;28;19912;-63
2022/01/13 03:01:25;;;;;;;;;;;20.60;43.40;;;;;;5094048;28;19916;-63
2022/01/13 03:03:51;;;;;;;;;;;20.60;43.40;;;;;;5086239;28;19923;-63
2022/01/13 03:06:28;;;;;;;;;;;20.60;43.50;;;;;;5093887;28;19912;-64
2022/01/13 03:08:54;;;;;;;;;;;20.50;43.40;;;;;;5124029;27;19912;-63
2022/01/13 03:11:19;;;;;;;;;;;20.50;43.50;;;;;;5132265;27;19938;-63
2022/01/13 03:13:45;;;;;;;;;;;20.50;43.50;;;;;;5092662;28;20426;-64
2022/01/13 03:16:11;;;;;;;;;;;20.50;43.50;;;;;;5093375;28;20380;-64
2022/01/13 03:18:36;;;;;;;;;;;20.40;43.50;;;;;;5126858;27;19916;-64
2022/01/13 03:21:02;;;;;;;;;;;20.40;43.60;;;;;;5093793;28;20391;-64
2022/01/13 03:23:28;;;;;;;;;;;20.50;43.70;;;;;;5096218;28;19962;-64
2022/01/13 03:25:53;;;;;;;;;;;20.40;43.50;;;;;;5093085;28;20384;-64
2022/01/13 03:28:29;;;;;;;;;;;20.40;43.50;;;;;;5093725;28;20037;-64
2022/01/13 03:30:54;;;;;;;;;;;20.40;43.40;;;;;;5131016;27;20014;-63
2022/01/13 03:33:20;;;;;;;;;;;20.40;43.20;;;;;;5093762;28;20041;-63
2022/01/13 03:35:45;;;;;;;;;;;20.40;43.20;;;;;;5093787;28;19908;-63
2022/01/13 03:38:11;;;;;;;;;;;20.40;43.20;;;;;;5085211;28;19923;-63
2022/01/13 03:40:36;;;;;;;;;;;20.40;43.10;;;;;;5093302;28;19965;-63
2022/01/13 03:43:02;;;;;;;;;;;20.40;43.10;;;;;;5094097;28;20019;-63
2022/01/13 03:45:28;;;;;;;;;;;20.40;43.00;;;;;;5093297;28;19948;-63
2022/01/13 03:47:54;;;;;;;;;;;20.50;43.00;;;;;;5093982;28;20401;-63
2022/01/13 03:50:20;;;;;;;;;;;20.40;42.90;;;;;;5087205;28;19996;-63
2022/01/13 03:53:03;;;;;;;;;;;20.50;42.90;;;;;;5087852;28;20030;-63
2022/01/13 03:55:35;;;;;;;;;;;20.50;42.90;;;;;;5093037;28;20403;-63
2022/01/13 03:58:19;;;;;;;;;;;20.50;42.80;;;;;;5123435;27;19913;-63
2022/01/13 04:01:09;;;;;;;;;;;20.50;42.90;;;;;;5091025;28;19916;-63
2022/01/13 04:03:35;;;;;;;;;;;20.50;42.90;;;;;;5093005;28;19920;-63
2022/01/13 04:06:08;;;;;;;;;;;20.50;43.00;;;;;;5092418;28;20268;-63
2022/01/13 04:08:33;;;;;;;;;;;20.40;43.20;;;;;;5123993;27;19916;-64
2022/01/13 04:11:10;;;;;;;;;;;20.40;43.10;;;;;;5091973;28;19912;-63
2022/01/13 04:16:27;;;;;;;;;;;20.30;43.80;;;;;;5093357;28;19919;-64
2022/01/13 04:18:54;;;;;;;;;;;20.10;44.00;;;;;;5125235;27;19962;-64
2022/01/13 04:21:19;;;;;;;;;;;20.00;44.30;;;;;;5092558;28;19920;-64
2022/01/13 04:23:45;;;;;;;;;;;20.00;44.40;;;;;;5090456;28;19920;-64
2022/01/13 04:26:10;;;;;;;;;;;20.00;44.40;;;;;;5092863;28;20361;-64
2022/01/13 04:28:36;;;;;;;;;;;20.00;44.30;;;;;;5091602;28;19934;-63
2022/01/13 04:31:02;;;;;;;;;;;19.90;44.40;;;;;;5076354;28;19912;-63
2022/01/13 04:33:28;;;;;;;;;;;20.00;44.40;;;;;;5092222;28;19923;-63
2022/01/13 04:35:53;;;;;;;;;;;20.00;44.30;;;;;;5091889;28;19909;-63
2022/01/13 04:38:19;;;;;;;;;;;20.00;44.10;;;;;;5084654;28;19942;-64
2022/01/13 04:40:46;;;;;;;;;;;20.00;44.20;;;;;;5092770;28;19908;-63
2022/01/13 04:43:12;;;;;;;;;;;20.00;44.30;;;;;;5091198;28;19966;-63
2022/01/13 04:45:38;;;;;;;;;;;20.00;44.30;;;;;;5090744;28;19959;-64
2022/01/13 04:48:03;;;;;;;;;;;20.10;44.30;;;;;;5092105;28;20366;-64
2022/01/13 04:50:29;;;;;;;;;;;20.10;44.10;;;;;;5123442;27;19923;-64
2022/01/13 04:52:54;;;;;;;;;;;20.10;44.00;;;;;;5091703;28;19912;-63
2022/01/13 04:55:24;;;;;;;;;;;20.10;44.00;;;;;;5091748;28;19908;-64
2022/01/13 04:57:50;;;;;;;;;;;20.10;44.00;;;;;;5084121;28;19916;-64
2022/01/13 05:00:16;;;;;;;;;;;20.10;44.10;;;;;;5091877;28;20321;-64
2022/01/13 05:02:41;;;;;;;;;;;20.10;44.00;;;;;;5087439;28;19916;-63
2022/01/13 05:05:06;;;;;;;;;;;20.10;44.10;;;;;;5090749;28;19916;-63
2022/01/13 05:07:32;;;;;;;;;;;20.10;43.80;;;;;;5091636;28;19919;-63
2022/01/13 05:09:58;;;;;;;;;;;20.10;43.80;;;;;;5124159;27;19923;-63
2022/01/13 05:12:29;;;;;;;;;;;20.10;43.90;;;;;;5091908;28;20009;-63
2022/01/13 05:14:58;;;;;;;;;;;20.10;43.90;;;;;;5098151;28;19916;-63
2022/01/13 05:18:30;;;;;;;;;;;20.10;44.00;;;;;;5091717;28;19916;-63
2022/01/13 05:20:22;;;;;;;;;;;20.10;44.00;;;;;;5070895;28;19960;-63
2022/01/13 05:22:48;;;;;;;;;;;20.10;44.00;;;;;;5086515;28;19989;-63
2022/01/13 05:25:14;;;;;;;;;;;20.10;43.80;;;;;;5090557;28;19943;-63
2022/01/13 05:27:39;;;;;;;;;;;20.10;44.00;;;;;;5091599;28;20392;-63
2022/01/13 05:30:05;;;;;;;;;;;20.10;44.00;;;;;;5096649;28;19934;-63
2022/01/13 05:32:30;;;;;;;;;;;20.10;43.90;;;;;;5124427;27;19912;-64
2022/01/13 05:34:56;;;;;;;;;;;20.10;43.90;;;;;;5090900;28;20293;-63
2022/01/13 05:37:21;;;;;;;;;;;20.10;43.80;;;;;;5086627;28;20351;-63
2022/01/13 05:39:47;;;;;;;;;;;20.10;43.70;;;;;;5123445;27;19912;-63
2022/01/13 05:42:12;;;;;;;;;;;20.10;44.00;;;;;;5095101;28;19914;-63
2022/01/13 05:44:38;;;;;;;;;;;20.10;44.00;;;;;;5123812;27;19962;-63
2022/01/13 05:47:10;;;;;;;;;;;20.10;43.90;;;;;;5091381;28;19916;-63
2022/01/13 05:49:36;;;;;;;;;;;20.10;43.80;;;;;;5091061;28;19999;-63
2022/01/13 05:52:02;;;;;;;;;;;20.10;44.00;;;;;;5091265;28;20011;-64
2022/01/13 05:54:27;;;;;;;;;;;20.10;43.90;;;;;;5123021;27;19952;-63
2022/01/13 05:56:53;;;;;;;;;;;20.10;44.00;;;;;;5091561;28;20018;-63
2022/01/13 05:59:20;;;;;;;;;;;20.10;44.00;;;;;;5091027;28;19916;-63
2022/01/13 06:01:45;;;;;;;;;;;20.10;43.80;;;;;;5082336;28;19912;-63
2022/01/13 06:04:11;;;;;;;;;;;20.10;43.90;;;;;;5089021;28;19976;-64
2022/01/13 06:06:36;;;;;;;;;;;20.10;43.90;;;;;;5091333;28;19970;-64
2022/01/13 06:09:02;;;;;;;;;;;20.10;44.00;;;;;;5083567;28;19924;-64
2022/01/13 06:11:37;;;;;;;;;;;20.10;44.10;;;;;;5086119;28;20387;-63
2022/01/13 06:14:02;;;;;;;;;;;20.10;43.90;;;;;;5097235;28;20300;-63
2022/01/13 06:16:27;;;;;;;;;;;20.10;43.90;;;;;;5090978;28;20010;-63
2022/01/13 06:18:53;;;;;;;;;;;20.10;43.80;;;;;;5123045;27;20372;-63
2022/01/13 06:21:18;;;;;;;;;;;20.10;43.80;;;;;;5089025;28;20237;-63
2022/01/13 06:23:44;;;;;;;;;;;20.10;43.70;;;;;;5089384;28;19925;-63
2022/01/13 06:26:09;;;;;;;;;;;20.10;43.70;;;;;;5122035;27;19916;-63
2022/01/13 06:28:35;;;;;;;;;;;20.10;43.70;;;;;;5089699;28;19912;-63
2022/01/13 06:31:00;;;;;;;;;;;20.10;43.70;;;;;;5089961;28;19935;-63
2022/01/13 06:33:26;;;;;;;;;;;20.20;43.80;;;;;;5090420;28;19934;-64
2022/01/13 06:35:51;;;;;;;;;;;20.20;43.80;;;;;;5091063;28;19916;-63
2022/01/13 06:38:17;;;;;;;;;;;20.10;43.80;;;;;;5090025;28;19919;-63
2022/01/13 06:40:43;;;;;;;;;;;20.20;43.70;;;;;;5090349;28;19912;-63
2022/01/13 06:43:09;;;;;;;;;;;20.10;43.70;;;;;;5090214;28;19913;-63
2022/01/13 06:45:34;;;;;;;;;;;20.10;43.80;;;;;;5090666;28;20412;-63
2022/01/13 06:48:00;;;;;;;;;;;20.10;43.70;;;;;;5088629;28;20402;-63
2022/01/13 06:50:25;;;;;;;;;;;20.10;43.90;;;;;;5089222;28;20407;-63
2022/01/13 06:52:50;;;;;;;;;;;20.10;44.00;;;;;;5093553;28;19918;-63
2022/01/13 06:55:16;;;;;;;;;;;20.10;43.90;;;;;;5086932;28;20014;-63
2022/01/13 06:57:41;;;;;;;;;;;20.10;43.90;;;;;;5098301;28;19919;-63
2022/01/13 07:00:07;;;;;;;;;;;20.10;44.00;;;;;;5093654;28;20407;-63
2022/01/13 07:02:34;;;;;;;;;;;20.10;44.00;;;;;;5093016;28;19920;-63
2022/01/13 07:04:59;;;;;;;;;;;20.10;44.00;;;;;;5094042;28;20011;-63
2022/01/13 07:07:24;;;;;;;;;;;20.10;44.00;;;;;;5093131;28;20010;-63
2022/01/13 07:09:50;;;;;;;;;;;20.10;44.10;;;;;;5093146;28;19912;-64
2022/01/13 07:12:15;;;;;;;;;;;20.10;44.10;;;;;;5094207;28;19911;-63
2022/01/13 07:14:41;;;;;;;;;;;20.10;44.00;;;;;;5094662;28;20096;-63
2022/01/13 07:17:06;;;;;;;;;;;20.10;44.00;;;;;;5093296;28;19919;-63
2022/01/13 07:19:32;;;;;;;;;;;20.00;43.90;;;;;;5094148;28;20003;-63
2022/01/13 07:21:57;;;;;;;;;;;20.10;44.10;;;;;;5093241;28;19920;-63
2022/01/13 07:24:22;;;;;;;;;;;20.10;44.20;;;;;;5093263;28;20380;-63
2022/01/13 07:26:48;;;;;;;;;;;20.10;44.00;;;;;;5093173;28;20305;-63
2022/01/13 07:29:13;;;;;;;;;;;20.10;44.00;;;;;;5091971;28;20340;-64
2022/01/13 07:31:39;;;;;;;;;;;20.00;44.10;;;;;;5090934;28;19916;-64
2022/01/13 07:34:05;;;;;;;;;;;20.00;44.20;;;;;;5092452;28;19911;-63
2022/01/13 07:36:31;;;;;;;;;;;20.00;44.40;;;;;;5126474;27;19908;-63
2022/01/13 07:38:56;;;;;;;;;;;20.00;44.30;;;;;;5084618;28;20441;-64
2022/01/13 07:41:22;;;;;;;;;;;20.00;44.40;;;;;;5087979;28;19920;-63
2022/01/13 07:43:53;;;;;;;;;;;20.00;44.40;;;;;;5099586;27;19923;-63
2022/01/13 07:46:18;;;;;;;;;;;20.00;44.40;;;;;;5082124;28;19912;-63
2022/01/13 07:48:44;;;;;;;;;;;20.00;44.40;;;;;;5091999;28;19974;-62
2022/01/13 07:51:09;;;;;;;;;;;20.00;44.50;;;;;;5093602;28;20392;-62
2022/01/13 07:53:35;;;;;;;;;;;20.00;44.50;;;;;;5091856;28;20402;-62
2022/01/13 07:56:00;;;;;;;;;;;20.00;44.40;;;;;;5093643;28;19908;-62
2022/01/13 07:58:26;;;;;;;;;;;20.00;44.40;;;;;;5093567;28;20296;-62
2022/01/13 08:00:52;;;;;;;;;;;20.00;44.40;;;;;;5093186;28;19912;-62
2022/01/13 08:03:17;;;;;;;;;;;20.10;44.50;;;;;;5091871;28;20261;-62
2022/01/13 08:05:43;;;;;;;;;;;20.30;44.50;;;;;;5090427;28;19927;-62
2022/01/13 08:08:09;;;;;;;;;;;20.60;44.00;;;;;;5087139;28;19916;-62
2022/01/13 08:10:35;;;;;;;;;;;20.90;43.40;;;;;;5091183;28;20488;-63
2022/01/13 08:13:00;;;;;;;;;;;21.20;42.90;;;;;;5091422;28;19922;-63
2022/01/13 08:15:27;;;;;;;;;;;21.40;42.40;;;;;;5091431;28;19918;-62
2022/01/13 08:20:37;;;;;;;;;;;21.70;41.90;;;;;;5114505;27;20443;-62
2022/01/13 08:23:02;;;;;;;;;;;21.80;41.70;;;;;;5091471;28;19912;-63
2022/01/13 08:25:30;;;;;;;;;;;22.00;41.60;;;;;;5089150;28;21444;-63
2022/01/13 08:27:55;;;;;;;;;;;22.10;41.40;;;;;;5079411;28;19920;-63
2022/01/13 08:30:20;;;;;;;;;;;22.10;41.20;;;;;;5095436;28;19950;-62
2022/01/13 08:32:46;;;;;;;;;;;22.20;41.20;;;;;;5093188;28;19908;-63
2022/01/13 08:35:11;;;;;;;;;;;22.20;41.20;;;;;;5095613;28;20245;-63
2022/01/13 08:37:37;;;;;;;;;;;22.20;41.10;;;;;;5091888;28;19908;-62
2022/01/13 08:40:03;;;;;;;;;;;22.20;41.10;;;;;;5091360;28;19908;-63
2022/01/13 08:42:29;;;;;;;;;;;22.30;41.10;;;;;;5089657;28;19977;-63
2022/01/13 08:44:55;;;;;;;;;;;22.30;40.90;;;;;;5096050;28;19916;-63
2022/01/13 08:47:20;;;;;;;;;;;22.40;41.00;;;;;;5094733;28;19908;-63
2022/01/13 08:49:46;;;;;;;;;;;22.40;41.00;;;;;;5124820;27;19915;-61
2022/01/13 08:52:11;;;;;;;;;;;22.40;41.00;;;;;;5091830;28;19931;-61
2022/01/13 08:54:37;;;;;;;;;;;22.40;41.00;;;;;;5090322;28;19913;-62
2022/01/13 08:57:02;;;;;;;;;;;22.50;41.00;;;;;;5091215;28;19931;-62
2022/01/13 08:59:28;;;;;;;;;;;22.40;41.00;;;;;;5090386;28;19908;-63
2022/01/13 09:01:54;;;;;;;;;;;22.50;41.00;;;;;;5086030;28;19912;-63
2022/01/13 09:04:19;;;;;;;;;;;22.50;41.10;;;;;;5090832;28;19927;-62
2022/01/13 09:06:45;;;;;;;;;;;22.50;41.10;;;;;;5090807;28;20418;-62
2022/01/13 09:09:10;;;;;;;;;;;22.50;41.10;;;;;;5088791;28;19916;-62
2022/01/13 09:11:36;;;;;;;;;;;22.50;41.10;;;;;;5089093;28;19916;-63
2022/01/13 09:14:01;;;;;;;;;;;22.50;41.10;;;;;;5090463;28;19908;-62
2022/01/13 09:16:29;;;;;;;;;;;22.50;41.00;;;;;;5091270;28;20070;-62
2022/01/13 09:21:20;;;;;;;;;;;22.50;40.90;;;;;;5091609;28;19912;-62
2022/01/13 09:23:45;;;;;;;;;;;22.50;41.00;;;;;;5127913;27;19916;-62
2022/01/13 09:26:11;;;;;;;;;;;22.50;41.00;;;;;;5101489;28;20460;-63
2022/01/13 09:28:36;;;;;;;;;;;22.60;41.00;;;;;;5091380;28;19931;-62
2022/01/13 09:31:02;;;;;;;;;;;22.60;41.00;;;;;;5091391;28;20266;-62
2022/01/13 09:33:28;;;;;;;;;;;22.60;41.00;;;;;;5091318;28;19984;-62
2022/01/13 09:35:53;;;;;;;;;;;22.60;40.80;;;;;;5091876;28;19909;-62
2022/01/13 09:38:18;;;;;;;;;;;22.60;40.90;;;;;;5090596;28;19912;-63
2022/01/13 09:40:45;;;;;;;;;;;22.60;40.80;;;;;;5091140;28;19920;-63
2022/01/13 09:43:11;;;;;;;;;;;22.60;40.80;;;;;;5124147;27;19908;-63
2022/01/13 09:45:36;;;;;;;;;;;22.70;40.80;;;;;;5089839;28;20354;-63
2022/01/13 09:48:02;;;;;;;;;;;22.70;40.80;;;;;;5090551;28;19969;-63
2022/01/13 09:50:27;;;;;;;;;;;22.70;40.70;;;;;;5089578;28;19978;-63
2022/01/13 09:52:53;;;;;;;;;;;22.80;40.70;;;;;;5089467;28;19927;-63
2022/01/13 09:55:19;;;;;;;;;;;22.70;40.60;;;;;;5090613;28;20394;-63
2022/01/13 09:57:46;;;;;;;;;;;22.80;40.70;;;;;;5091030;28;20432;-62
2022/01/13 10:00:12;;;;;;;;;;;22.80;40.60;;;;;;5089932;28;19951;-62
2022/01/13 10:02:38;;;;;;;;;;;22.80;40.70;;;;;;5089889;28;19919;-62
2022/01/13 10:05:04;;;;;;;;;;;22.80;40.70;;;;;;5089175;28;19920;-63
2022/01/13 10:07:30;;;;;;;;;;;22.80;40.70;;;;;;5090672;28;19916;-62
2022/01/13 10:09:56;;;;;;;;;;;22.80;40.60;;;;;;5090026;28;20299;-63
2022/01/13 10:12:25;;;;;;;;;;;22.90;40.70;;;;;;5089794;28;19924;-62
2022/01/13 10:17:26;;;;;;;;;;;22.80;40.60;;;;;;5087378;28;19916;-63
2022/01/13 10:19:55;;;;;;;;;;;22.80;40.60;;;;;;5089836;28;20327;-62
2022/01/13 10:22:25;;;;;;;;;;;22.90;40.50;;;;;;5090555;28;19912;-62
2022/01/13 10:24:55;;;;;;;;;;;22.90;40.50;;;;;;5087076;28;19974;-63
2022/01/13 10:27:22;;;;;;;;;;;22.80;40.40;;;;;;5099765;28;19908;-63
2022/01/13 10:29:54;;;;;;;;;;;22.90;40.50;;;;;;5092919;28;20372;-62
2022/01/13 10:32:20;;;;;;;;;;;22.80;40.30;;;;;;5094643;28;20585;-62
2022/01/13 10:34:46;;;;;;;;;;;22.80;40.30;;;;;;5125974;27;19977;-63
2022/01/13 10:37:13;;;;;;;;;;;22.90;40.40;;;;;;5127055;27;19912;-62
2022/01/13 10:39:51;;;;;;;;;;;22.90;40.30;;;;;;5092569;28;19908;-62
2022/01/13 10:44:57;;;;;;;;;;;22.90;40.20;;;;;;5129835;27;19919;-62
2022/01/13 10:47:23;;;;;;;;;;;22.90;40.20;;;;;;5092511;28;19912;-62
2022/01/13 10:49:50;;;;;;;;;;;22.80;40.30;;;;;;5093827;28;19908;-62
2022/01/13 10:52:15;;;;;;;;;;;22.80;40.30;;;;;;5094396;28;19919;-63
2022/01/13 10:54:41;;;;;;;;;;;22.90;40.40;;;;;;5092824;28;19908;-62
2022/01/13 10:57:16;;;;;;;;;;;22.90;40.30;;;;;;5093547;28;19959;-62
2022/01/13 10:59:42;;;;;;;;;;;23.00;40.30;;;;;;5092289;28;20140;-63
2022/01/13 11:02:10;;;;;;;;;;;23.00;40.20;;;;;;5093303;28;20364;-62
2022/01/13 11:04:35;;;;;;;;;;;23.00;40.10;;;;;;5092966;28;19916;-62
2022/01/13 11:07:30;;;;;;;;;;;23.00;40.20;;;;;;5093653;28;20276;-62
2022/01/13 11:09:56;;;;;;;;;;;23.00;40.20;;;;;;5083010;28;19959;-62
2022/01/13 11:12:31;;;;;;;;;;;23.10;40.40;;;;;;5092950;28;19919;-62
2022/01/13 11:15:02;;;;;;;;;;;23.10;40.20;;;;;;5124807;27;20365;-62
2022/01/13 11:17:28;;;;;;;;;;;23.10;40.30;;;;;;5084745;28;19923;-62
2022/01/13 11:19:55;;;;;;;;;;;23.10;40.10;;;;;;5091994;28;19912;-63
2022/01/13 11:22:20;;;;;;;;;;;23.20;40.10;;;;;;5091438;28;20387;-63
2022/01/13 11:24:46;;;;;;;;;;;23.20;40.10;;;;;;5091045;28;19999;-63
2022/01/13 11:27:11;;;;;;;;;;;23.20;40.10;;;;;;5108783;28;19912;-63
2022/01/13 11:29:37;;;;;;;;;;;23.20;40.10;;;;;;5091908;28;19916;-63
2022/01/13 11:32:02;;;;;;;;;;;23.30;40.10;;;;;;5092477;28;19923;-63
2022/01/13 11:34:28;;;;;;;;;;;23.20;40.00;;;;;;5092918;28;20359;-63
2022/01/13 11:36:53;;;;;;;;;;;23.30;40.10;;;;;;5093504;28;19959;-62
2022/01/13 11:39:18;;;;;;;;;;;23.30;40.10;;;;;;5091652;28;19923;-63
2022/01/13 11:42:00;;;;;;;;;;;23.30;40.20;;;;;;5091270;28;19923;-62
2022/01/13 11:44:27;;;;;;;;;;;23.30;40.30;;;;;;5091366;28;19916;-62
2022/01/13 11:46:53;;;;;;;;;;;23.30;40.30;;;;;;5092843;28;19916;-63
2022/01/13 11:49:21;;;;;;;;;;;23.30;40.30;;;;;;5093501;28;20373;-63
2022/01/13 11:51:57;;;;;;;;;;;23.30;40.20;;;;;;5091750;28;20022;-62
2022/01/13 11:54:33;;;;;;;;;;;23.30;40.30;;;;;;5092799;28;19912;-63
2022/01/13 11:57:11;;;;;;;;;;;23.30;40.30;;;;;;5093352;28;19915;-62
2022/01/13 11:59:36;;;;;;;;;;;23.30;40.30;;;;;;5089244;28;19996;-63
2022/01/13 12:02:21;;;;;;;;;;;23.40;40.30;;;;;;5089763;28;20359;-62
2022/01/13 12:05:02;;;;;;;;;;;23.40;40.30;;;;;;5092590;28;19916;-62
2022/01/13 12:07:37;;;;;;;;;;;23.40;40.30;;;;;;5083118;28;19911;-62
2022/01/13 12:10:04;;;;;;;;;;;23.40;40.30;;;;;;5092694;28;19915;-62
2022/01/13 12:12:31;;;;;;;;;;;23.40;40.40;;;;;;5125496;27;19915;-62
2022/01/13 12:15:11;;;;;;;;;;;23.40;40.30;;;;;;5091411;28;19916;-63
2022/01/13 12:17:46;;;;;;;;;;;23.40;40.30;;;;;;5091970;28;19922;-63
2022/01/13 12:20:19;;;;;;;;;;;23.40;40.30;;;;;;5089995;28;19912;-62
2022/01/13 12:22:54;;;;;;;;;;;23.40;40.30;;;;;;5089637;28;19992;-62
2022/01/13 12:25:20;;;;;;;;;;;23.40;40.40;;;;;;5091918;28;19924;-63
2022/01/13 12:27:46;;;;;;;;;;;23.40;40.30;;;;;;5092461;28;19912;-63
2022/01/13 12:30:13;;;;;;;;;;;23.40;40.30;;;;;;5091270;28;19961;-62
2022/01/13 12:32:49;;;;;;;;;;;23.50;40.30;;;;;;5092665;28;19933;-62
2022/01/13 12:35:15;;;;;;;;;;;23.50;40.30;;;;;;5092142;28;20375;-63
2022/01/13 12:37:41;;;;;;;;;;;23.50;40.40;;;;;;5088743;28;19919;-63
2022/01/13 12:40:12;;;;;;;;;;;23.50;40.50;;;;;;5090150;28;19916;-63
2022/01/13 12:42:49;;;;;;;;;;;23.50;40.60;;;;;;5091508;28;20007;-63
2022/01/13 12:45:33;;;;;;;;;;;23.50;40.60;;;;;;5098771;28;20011;-63
2022/01/13 12:48:02;;;;;;;;;;;23.50;40.70;;;;;;5091863;28;20296;-64
2022/01/13 12:50:29;;;;;;;;;;;23.50;40.60;;;;;;5089754;28;19990;-62
2022/01/13 12:53:05;;;;;;;;;;;23.50;40.70;;;;;;5090951;28;19919;-62
2022/01/13 12:55:30;;;;;;;;;;;23.50;40.80;;;;;;5124581;27;19912;-63
2022/01/13 12:57:56;;;;;;;;;;;23.50;41.10;;;;;;5089940;28;19923;-63
2022/01/13 13:00:25;;;;;;;;;;;23.50;41.20;;;;;;5084833;28;19920;-63
2022/01/13 13:02:54;;;;;;;;;;;23.60;41.40;;;;;;5089467;28;20003;-63
2022/01/13 13:05:29;;;;;;;;;;;23.60;41.60;;;;;;5089461;28;19920;-62
2022/01/13 13:07:55;;;;;;;;;;;23.50;41.50;;;;;;5091485;28;19923;-62
2022/01/13 13:10:20;;;;;;;;;;;23.60;41.70;;;;;;5090176;28;19908;-62
2022/01/13 13:12:52;;;;;;;;;;;23.60;41.80;;;;;;5087667;28;19946;-63
2022/01/13 13:17:46;;;;;;;;;;;23.60;41.70;;;;;;5085664;28;20011;-63
2022/01/13 13:20:24;;;;;;;;;;;23.60;42.10;;;;;;5083310;28;20562;-63
2022/01/13 13:22:49;;;;;;;;;;;23.60;41.90;;;;;;5088964;28;19915;-63
2022/01/13 13:25:27;;;;;;;;;;;23.60;41.90;;;;;;5090134;28;19931;-62
2022/01/13 13:27:53;;;;;;;;;;;23.60;41.90;;;;;;5091513;28;19935;-63
2022/01/13 13:30:18;;;;;;;;;;;23.70;41.80;;;;;;5090843;28;20368;-63
2022/01/13 13:32:50;;;;;;;;;;;23.70;41.80;;;;;;5091186;28;20380;-62
2022/01/13 13:35:16;;;;;;;;;;;23.70;41.80;;;;;;5091618;28;19908;-62
2022/01/13 13:37:45;;;;;;;;;;;23.70;41.80;;;;;;5084824;28;19912;-62
2022/01/13 13:40:22;;;;;;;;;;;23.70;41.80;;;;;;5088329;28;19917;-62
2022/01/13 13:42:58;;;;;;;;;;;23.70;41.80;;;;;;5090922;28;20394;-63
2022/01/13 13:45:24;;;;;;;;;;;23.70;41.80;;;;;;5090494;28;20418;-63
2022/01/13 13:47:56;;;;;;;;;;;23.70;41.90;;;;;;5090303;28;19917;-62
2022/01/13 13:50:22;;;;;;;;;;;23.70;41.80;;;;;;5088227;28;19920;-62
2022/01/13 13:52:47;;;;;;;;;;;23.70;41.80;;;;;;5106208;28;20300;-62
2022/01/13 13:55:13;;;;;;;;;;;23.70;41.80;;;;;;5090684;28;19912;-63
2022/01/13 13:57:38;;;;;;;;;;;23.70;41.80;;;;;;5090873;28;20381;-63
2022/01/13 14:00:07;;;;;;;;;;;23.70;41.80;;;;;;5090115;28;20380;-63
2022/01/13 14:02:35;;;;;;;;;;;23.70;41.80;;;;;;5089163;28;19916;-63
2022/01/13 14:05:05;;;;;;;;;;;23.70;41.90;;;;;;5090372;28;20453;-63
2022/01/13 14:07:31;;;;;;;;;;;23.80;41.90;;;;;;5087692;28;20455;-63
2022/01/13 14:10:00;;;;;;;;;;;23.80;41.80;;;;;;5090685;28;20006;-63
2022/01/13 14:12:32;;;;;;;;;;;23.80;41.80;;;;;;5089587;28;19999;-63
2022/01/13 14:15:10;;;;;;;;;;;23.80;41.80;;;;;;5090950;28;19908;-63
2022/01/13 14:17:35;;;;;;;;;;;23.80;41.80;;;;;;5091018;28;19916;-62
2022/01/13 14:20:05;;;;;;;;;;;23.80;41.80;;;;;;5091008;28;19914;-62
2022/01/13 14:22:31;;;;;;;;;;;23.80;41.70;;;;;;5092120;28;20380;-63
2022/01/13 14:24:58;;;;;;;;;;;23.80;41.70;;;;;;5105065;27;20005;-63
2022/01/13 14:27:24;;;;;;;;;;;23.80;41.70;;;;;;5119815;27;19909;-63
2022/01/13 14:29:49;;;;;;;;;;;23.80;41.60;;;;;;5123751;27;19912;-63
2022/01/13 14:32:16;;;;;;;;;;;23.80;41.60;;;;;;5090164;28;19956;-63
2022/01/13 14:34:51;;;;;;;;;;;23.90;41.70;;;;;;5120882;27;19916;-62
2022/01/13 14:37:17;;;;;;;;;;;23.80;41.60;;;;;;5083715;28;19961;-63
2022/01/13 14:39:42;;;;;;;;;;;23.80;41.60;;;;;;5083691;28;20417;-62